sensor_id;sensor_type;location;lat;lon;timestamp;pressure;altitude;pressure_sealevel;temperature;humidity
77013;BME280;67260;53.130;17.982;2023-06-22T00:02:21;101374.27;;;20.24;79.55
77013;BME280;67260;53.130;17.982;2023-06-22T00:04:47;101378.23;;;20.25;79.56
77013;BME280;67260;53.130;17.982;2023-06-22T00:07:13;101380.17;;;20.25;79.44
77013;BME280;67260;53.130;17.982;2023-06-22T00:09:39;101385.52;;;20.26;79.45
77013;BME280;67260;53.130;17.982;2023-06-22T00:12:05;101387.73;;;20.27;79.45
77013;BME280;67260;53.130;17.982;2023-06-22T00:14:32;101397.23;;;20.26;79.04
77013;BME280;67260;53.130;17.982;2023-06-22T00:16:58;101396.11;;;20.23;79.22
77013;BME280;67260;53.130;17.982;2023-06-22T00:19:25;101394.21;;;20.21;79.33
77013;BME280;67260;53.130;17.982;2023-06-22T00:21:51;101396.32;;;20.22;79.16
77013;BME280;67260;53.130;17.982;2023-06-22T00:24:24;101393.87;;;20.19;79.38
77013;BME280;67260;53.130;17.982;2023-06-22T00:26:50;101387.30;;;20.21;79.27
77013;BME280;67260;53.130;17.982;2023-06-22T00:29:16;101393.42;;;20.23;79.28
77013;BME280;67260;53.130;17.982;2023-06-22T00:31:42;101398.36;;;20.25;79.29
77013;BME280;67260;53.130;17.982;2023-06-22T00:34:09;101401.79;;;20.29;79.37
77013;BME280;67260;53.130;17.982;2023-06-22T00:36:36;101403.52;;;20.34;79.10
77013;BME280;67260;53.130;17.982;2023-06-22T00:39:03;101406.29;;;20.35;79.13
77013;BME280;67260;53.130;17.982;2023-06-22T00:41:31;101407.23;;;20.37;79.10
77013;BME280;67260;53.130;17.982;2023-06-22T00:43:57;101410.72;;;20.39;79.01
77013;BME280;67260;53.130;17.982;2023-06-22T00:46:24;101405.44;;;20.39;78.94
77013;BME280;67260;53.130;17.982;2023-06-22T00:48:51;101408.58;;;20.41;78.84
77013;BME280;67260;53.130;17.982;2023-06-22T00:51:18;101406.21;;;20.41;78.84
77013;BME280;67260;53.130;17.982;2023-06-22T00:53:50;101405.49;;;20.40;78.96
77013;BME280;67260;53.130;17.982;2023-06-22T00:56:17;101406.79;;;20.40;78.78
77013;BME280;67260;53.130;17.982;2023-06-22T00:58:46;101409.81;;;20.40;78.79
77013;BME280;67260;53.130;17.982;2023-06-22T01:01:13;101403.36;;;20.38;78.75
77013;BME280;67260;53.130;17.982;2023-06-22T01:03:40;101407.63;;;20.35;78.74
77013;BME280;67260;53.130;17.982;2023-06-22T01:06:15;101410.46;;;20.33;78.81
77013;BME280;67260;53.130;17.982;2023-06-22T01:08:51;101411.09;;;20.30;78.74
77013;BME280;67260;53.130;17.982;2023-06-22T01:11:29;101406.67;;;20.26;78.48
77013;BME280;67260;53.130;17.982;2023-06-22T01:14:08;101413.95;;;20.19;78.68
77013;BME280;67260;53.130;17.982;2023-06-22T01:16:40;101415.72;;;20.14;78.46
77013;BME280;67260;53.130;17.982;2023-06-22T01:19:26;101414.36;;;20.09;78.78
77013;BME280;67260;53.130;17.982;2023-06-22T01:21:56;101413.20;;;20.05;78.80
77013;BME280;67260;53.130;17.982;2023-06-22T01:24:30;101412.78;;;20.03;78.78
77013;BME280;67260;53.130;17.982;2023-06-22T01:29:51;101418.33;;;19.92;78.59
77013;BME280;67260;53.130;17.982;2023-06-22T01:32:18;101417.89;;;19.88;78.69
77013;BME280;67260;53.130;17.982;2023-06-22T01:34:46;101415.04;;;19.83;78.50
77013;BME280;67260;53.130;17.982;2023-06-22T01:37:14;101417.88;;;19.76;78.43
77013;BME280;67260;53.130;17.982;2023-06-22T01:39:41;101412.03;;;19.69;78.48
77013;BME280;67260;53.130;17.982;2023-06-22T01:42:08;101411.77;;;19.66;78.44
77013;BME280;67260;53.130;17.982;2023-06-22T01:44:35;101417.08;;;19.63;78.40
77013;BME280;67260;53.130;17.982;2023-06-22T01:47:02;101416.30;;;19.58;78.33
77013;BME280;67260;53.130;17.982;2023-06-22T01:49:29;101418.21;;;19.55;78.25
77013;BME280;67260;53.130;17.982;2023-06-22T01:51:57;101422.65;;;19.50;78.12
77013;BME280;67260;53.130;17.982;2023-06-22T01:54:23;101420.84;;;19.41;78.03
77013;BME280;67260;53.130;17.982;2023-06-22T01:56:49;101416.59;;;19.31;78.24
77013;BME280;67260;53.130;17.982;2023-06-22T01:59:23;101413.93;;;19.22;78.19
77013;BME280;67260;53.130;17.982;2023-06-22T02:01:57;101417.92;;;19.15;78.40
77013;BME280;67260;53.130;17.982;2023-06-22T02:04:43;101420.86;;;19.10;78.30
77013;BME280;67260;53.130;17.982;2023-06-22T02:07:17;101417.44;;;19.05;78.38
77013;BME280;67260;53.130;17.982;2023-06-22T02:09:46;101415.61;;;19.02;78.27
77013;BME280;67260;53.130;17.982;2023-06-22T02:12:17;101413.42;;;19.00;78.43
77013;BME280;67260;53.130;17.982;2023-06-22T02:14:45;101417.38;;;19.01;78.32
77013;BME280;67260;53.130;17.982;2023-06-22T02:17:12;101419.92;;;18.99;78.29
77013;BME280;67260;53.130;17.982;2023-06-22T02:19:41;101421.57;;;18.97;78.36
77013;BME280;67260;53.130;17.982;2023-06-22T02:22:07;101433.80;;;18.97;78.33
77013;BME280;67260;53.130;17.982;2023-06-22T02:24:33;101437.88;;;18.93;78.30
77013;BME280;67260;53.130;17.982;2023-06-22T02:27:00;101443.81;;;18.87;78.42
77013;BME280;67260;53.130;17.982;2023-06-22T02:29:27;101451.31;;;18.85;78.52
77013;BME280;67260;53.130;17.982;2023-06-22T02:31:53;101449.50;;;18.76;78.38
77013;BME280;67260;53.130;17.982;2023-06-22T02:34:21;101450.39;;;18.68;78.78
77013;BME280;67260;53.130;17.982;2023-06-22T02:36:48;101448.74;;;18.66;78.86
77013;BME280;67260;53.130;17.982;2023-06-22T02:39:22;101448.05;;;18.60;79.02
77013;BME280;67260;53.130;17.982;2023-06-22T02:41:53;101446.71;;;18.58;78.93
77013;BME280;67260;53.130;17.982;2023-06-22T02:44:19;101446.93;;;18.56;78.89
77013;BME280;67260;53.130;17.982;2023-06-22T02:46:47;101439.00;;;18.55;78.95
77013;BME280;67260;53.130;17.982;2023-06-22T02:49:14;101444.86;;;18.55;78.67
77013;BME280;67260;53.130;17.982;2023-06-22T02:51:42;101450.61;;;18.54;78.56
77013;BME280;67260;53.130;17.982;2023-06-22T02:54:08;101449.90;;;18.51;78.41
77013;BME280;67260;53.130;17.982;2023-06-22T02:56:35;101448.18;;;18.54;78.41
77013;BME280;67260;53.130;17.982;2023-06-22T02:59:02;101448.42;;;18.54;78.21
77013;BME280;67260;53.130;17.982;2023-06-22T03:01:33;101445.98;;;18.57;78.24
77013;BME280;67260;53.130;17.982;2023-06-22T03:04:06;101455.59;;;18.63;78.06
77013;BME280;67260;53.130;17.982;2023-06-22T03:06:33;101455.69;;;18.66;77.80
77013;BME280;67260;53.130;17.982;2023-06-22T03:09:01;101454.39;;;18.68;77.88
77013;BME280;67260;53.130;17.982;2023-06-22T03:11:28;101459.88;;;18.71;77.65
77013;BME280;67260;53.130;17.982;2023-06-22T03:13:53;101464.64;;;18.75;77.40
77013;BME280;67260;53.130;17.982;2023-06-22T03:16:19;101471.23;;;18.81;77.36
77013;BME280;67260;53.130;17.982;2023-06-22T03:18:46;101472.66;;;18.89;77.14
77013;BME280;67260;53.130;17.982;2023-06-22T03:21:12;101475.52;;;18.95;76.88
77013;BME280;67260;53.130;17.982;2023-06-22T03:23:38;101477.48;;;19.00;76.73
77013;BME280;67260;53.130;17.982;2023-06-22T03:26:05;101473.00;;;19.07;76.49
77013;BME280;67260;53.130;17.982;2023-06-22T03:28:31;101472.13;;;19.06;76.43
77013;BME280;67260;53.130;17.982;2023-06-22T03:30:57;101468.79;;;19.09;76.28
77013;BME280;67260;53.130;17.982;2023-06-22T03:33:24;101468.66;;;19.08;76.08
77013;BME280;67260;53.130;17.982;2023-06-22T03:35:50;101471.98;;;19.07;76.04
77013;BME280;67260;53.130;17.982;2023-06-22T03:38:16;101478.86;;;19.13;76.06
77013;BME280;67260;53.130;17.982;2023-06-22T03:40:43;101481.27;;;19.21;75.88
77013;BME280;67260;53.130;17.982;2023-06-22T03:43:09;101481.52;;;19.31;75.74
77013;BME280;67260;53.130;17.982;2023-06-22T03:45:35;101487.48;;;19.36;75.36
77013;BME280;67260;53.130;17.982;2023-06-22T03:48:01;101493.65;;;19.41;75.31
77013;BME280;67260;53.130;17.982;2023-06-22T03:50:27;101498.20;;;19.50;75.31
77013;BME280;67260;53.130;17.982;2023-06-22T03:52:53;101502.88;;;19.58;74.70
77013;BME280;67260;53.130;17.982;2023-06-22T03:55:19;101505.46;;;19.65;74.74
77013;BME280;67260;53.130;17.982;2023-06-22T03:57:45;101503.23;;;19.75;74.60
77013;BME280;67260;53.130;17.982;2023-06-22T04:00:13;101501.73;;;19.85;74.30
77013;BME280;67260;53.130;17.982;2023-06-22T04:02:40;101494.86;;;19.91;74.01
77013;BME280;67260;53.130;17.982;2023-06-22T04:05:06;101497.30;;;20.02;73.64
77013;BME280;67260;53.130;17.982;2023-06-22T04:07:32;101497.71;;;20.12;73.57
77013;BME280;67260;53.130;17.982;2023-06-22T04:09:58;101502.39;;;20.29;73.22
77013;BME280;67260;53.130;17.982;2023-06-22T04:12:24;101504.15;;;20.37;72.80
77013;BME280;67260;53.130;17.982;2023-06-22T04:14:50;101506.86;;;20.44;72.50
77013;BME280;67260;53.130;17.982;2023-06-22T04:17:16;101502.23;;;20.49;72.51
77013;BME280;67260;53.130;17.982;2023-06-22T04:19:43;101502.70;;;20.64;71.85
77013;BME280;67260;53.130;17.982;2023-06-22T04:22:09;101505.09;;;20.83;71.33
77013;BME280;67260;53.130;17.982;2023-06-22T04:24:35;101506.90;;;20.93;70.72
77013;BME280;67260;53.130;17.982;2023-06-22T04:27:01;101507.52;;;21.09;70.83
77013;BME280;67260;53.130;17.982;2023-06-22T04:29:31;101503.55;;;21.28;70.26
77013;BME280;67260;53.130;17.982;2023-06-22T04:31:57;101497.54;;;21.40;69.86
77013;BME280;67260;53.130;17.982;2023-06-22T04:34:24;101494.55;;;21.55;69.41
77013;BME280;67260;53.130;17.982;2023-06-22T04:36:53;101491.17;;;21.67;69.24
77013;BME280;67260;53.130;17.982;2023-06-22T04:39:19;101493.47;;;21.82;68.72
77013;BME280;67260;53.130;17.982;2023-06-22T04:41:45;101495.07;;;22.00;68.58
77013;BME280;67260;53.130;17.982;2023-06-22T04:44:12;101493.54;;;22.20;67.60
77013;BME280;67260;53.130;17.982;2023-06-22T04:46:38;101496.52;;;22.39;67.14
77013;BME280;67260;53.130;17.982;2023-06-22T04:49:08;101505.68;;;22.62;66.30
77013;BME280;67260;53.130;17.982;2023-06-22T04:51:40;101503.94;;;22.86;65.79
77013;BME280;67260;53.130;17.982;2023-06-22T04:54:07;101505.84;;;23.15;65.30
77013;BME280;67260;53.130;17.982;2023-06-22T04:56:34;101506.54;;;23.39;64.63
77013;BME280;67260;53.130;17.982;2023-06-22T04:59:00;101507.13;;;23.63;64.15
77013;BME280;67260;53.130;17.982;2023-06-22T05:01:26;101513.77;;;23.92;63.14
77013;BME280;67260;53.130;17.982;2023-06-22T05:03:52;101517.83;;;24.23;62.21
77013;BME280;67260;53.130;17.982;2023-06-22T05:06:22;101513.59;;;24.59;61.73
77013;BME280;67260;53.130;17.982;2023-06-22T05:08:54;101510.48;;;24.91;61.21
77013;BME280;67260;53.130;17.982;2023-06-22T05:11:26;101508.88;;;25.23;60.01
77013;BME280;67260;53.130;17.982;2023-06-22T05:13:53;101515.42;;;25.50;59.59
77013;BME280;67260;53.130;17.982;2023-06-22T05:16:20;101520.05;;;25.68;59.01
77013;BME280;67260;53.130;17.982;2023-06-22T05:18:53;101516.17;;;25.98;57.79
77013;BME280;67260;53.130;17.982;2023-06-22T05:21:22;101511.11;;;26.28;57.08
77013;BME280;67260;53.130;17.982;2023-06-22T05:23:49;101520.77;;;26.75;55.99
77013;BME280;67260;53.130;17.982;2023-06-22T05:26:15;101526.51;;;27.25;53.84
77013;BME280;67260;53.130;17.982;2023-06-22T05:28:41;101527.69;;;27.76;53.25
77013;BME280;67260;53.130;17.982;2023-06-22T05:31:07;101527.70;;;28.35;52.45
77013;BME280;67260;53.130;17.982;2023-06-22T05:33:33;101530.37;;;28.95;50.97
77013;BME280;67260;53.130;17.982;2023-06-22T05:35:59;101528.05;;;29.35;49.61
77013;BME280;67260;53.130;17.982;2023-06-22T05:38:25;101527.23;;;29.76;48.68
77013;BME280;67260;53.130;17.982;2023-06-22T05:40:51;101525.86;;;30.12;47.06
77013;BME280;67260;53.130;17.982;2023-06-22T05:43:17;101525.83;;;30.58;46.55
77013;BME280;67260;53.130;17.982;2023-06-22T05:45:43;101524.06;;;31.15;45.49
77013;BME280;67260;53.130;17.982;2023-06-22T05:48:09;101520.52;;;31.89;43.96
77013;BME280;67260;53.130;17.982;2023-06-22T05:50:36;101516.00;;;32.60;43.01
77013;BME280;67260;53.130;17.982;2023-06-22T05:53:03;101516.52;;;33.15;41.67
77013;BME280;67260;53.130;17.982;2023-06-22T05:55:29;101515.75;;;33.81;40.59
77013;BME280;67260;53.130;17.982;2023-06-22T05:57:56;101511.48;;;34.20;39.51
77013;BME280;67260;53.130;17.982;2023-06-22T06:00:23;101511.23;;;34.62;38.55
77013;BME280;67260;53.130;17.982;2023-06-22T06:02:51;101509.68;;;35.29;36.95
77013;BME280;67260;53.130;17.982;2023-06-22T06:05:22;101511.94;;;36.01;35.55
77013;BME280;67260;53.130;17.982;2023-06-22T06:07:55;101511.35;;;36.45;32.74
77013;BME280;67260;53.130;17.982;2023-06-22T06:10:21;101508.08;;;36.60;32.44
77013;BME280;67260;53.130;17.982;2023-06-22T06:12:48;101518.05;;;36.72;31.77
77013;BME280;67260;53.130;17.982;2023-06-22T06:15:18;101511.01;;;36.82;31.46
77013;BME280;67260;53.130;17.982;2023-06-22T06:17:47;101509.80;;;37.06;30.97
77013;BME280;67260;53.130;17.982;2023-06-22T06:20:13;101509.27;;;37.33;30.85
77013;BME280;67260;53.130;17.982;2023-06-22T06:22:40;101514.42;;;37.72;30.03
77013;BME280;67260;53.130;17.982;2023-06-22T06:25:16;101516.38;;;38.07;29.37
77013;BME280;67260;53.130;17.982;2023-06-22T06:27:49;101518.60;;;38.41;29.36
77013;BME280;67260;53.130;17.982;2023-06-22T06:30:18;101524.87;;;38.81;28.24
77013;BME280;67260;53.130;17.982;2023-06-22T06:32:48;101525.21;;;39.19;28.11
77013;BME280;67260;53.130;17.982;2023-06-22T06:35:14;101528.75;;;39.61;26.94
77013;BME280;67260;53.130;17.982;2023-06-22T06:37:47;101529.30;;;39.81;25.45
77013;BME280;67260;53.130;17.982;2023-06-22T06:40:15;101521.56;;;39.65;25.62
77013;BME280;67260;53.130;17.982;2023-06-22T06:42:46;101517.38;;;39.69;25.55
77013;BME280;67260;53.130;17.982;2023-06-22T06:45:22;101518.20;;;39.86;24.97
77013;BME280;67260;53.130;17.982;2023-06-22T06:48:05;101520.08;;;40.02;25.20
77013;BME280;67260;53.130;17.982;2023-06-22T06:51:50;101510.91;;;40.38;24.55
77013;BME280;67260;53.130;17.982;2023-06-22T06:54:20;101514.74;;;40.42;24.90
77013;BME280;67260;53.130;17.982;2023-06-22T06:56:53;101510.23;;;40.48;24.69
77013;BME280;67260;53.130;17.982;2023-06-22T06:59:24;101507.70;;;40.65;23.96
77013;BME280;67260;53.130;17.982;2023-06-22T07:01:50;101514.64;;;40.87;23.92
77013;BME280;67260;53.130;17.982;2023-06-22T07:04:17;101523.47;;;41.26;23.69
77013;BME280;67260;53.130;17.982;2023-06-22T07:06:47;101516.55;;;41.55;23.25
77013;BME280;67260;53.130;17.982;2023-06-22T07:09:20;101519.88;;;41.68;23.25
77013;BME280;67260;53.130;17.982;2023-06-22T07:11:52;101520.34;;;41.78;22.75
77013;BME280;67260;53.130;17.982;2023-06-22T07:14:22;101518.05;;;41.70;22.74
77013;BME280;67260;53.130;17.982;2023-06-22T07:17:14;101519.39;;;41.72;22.49
77013;BME280;67260;53.130;17.982;2023-06-22T07:20:04;101522.64;;;41.84;22.11
77013;BME280;67260;53.130;17.982;2023-06-22T07:23:09;101524.92;;;42.00;21.50
77013;BME280;67260;53.130;17.982;2023-06-22T07:50:09;101542.50;;;41.18;21.85
77013;BME280;67260;53.130;17.982;2023-06-22T08:02:14;101538.23;;;41.27;21.35
77013;BME280;67260;53.130;17.982;2023-06-22T08:08:00;101544.48;;;40.85;20.77
77013;BME280;67260;53.130;17.982;2023-06-22T08:10:34;101544.80;;;40.38;21.38
77013;BME280;67260;53.130;17.982;2023-06-22T08:13:17;101548.81;;;40.06;21.09
77013;BME280;67260;53.130;17.982;2023-06-22T08:16:01;101545.32;;;39.65;21.93
77013;BME280;67260;53.130;17.982;2023-06-22T08:25:20;101556.41;;;40.01;22.37
77013;BME280;67260;53.130;17.982;2023-06-22T08:27:48;101546.63;;;40.25;22.58
77013;BME280;67260;53.130;17.982;2023-06-22T08:30:41;101544.20;;;40.19;21.50
77013;BME280;67260;53.130;17.982;2023-06-22T08:33:22;101543.23;;;39.81;21.89
77013;BME280;67260;53.130;17.982;2023-06-22T08:35:59;101544.88;;;39.60;22.32
77013;BME280;67260;53.130;17.982;2023-06-22T08:38:26;101542.91;;;39.48;22.75
77013;BME280;67260;53.130;17.982;2023-06-22T08:40:52;101541.38;;;39.40;22.91
77013;BME280;67260;53.130;17.982;2023-06-22T08:43:18;101545.35;;;39.15;23.07
77013;BME280;67260;53.130;17.982;2023-06-22T08:45:44;101545.15;;;38.90;23.80
77013;BME280;67260;53.130;17.982;2023-06-22T08:48:11;101540.61;;;38.97;23.74
77013;BME280;67260;53.130;17.982;2023-06-22T08:50:37;101538.36;;;39.15;23.43
77013;BME280;67260;53.130;17.982;2023-06-22T08:53:07;101540.36;;;39.09;23.22
77013;BME280;67260;53.130;17.982;2023-06-22T08:55:33;101537.09;;;38.88;23.26
77013;BME280;67260;53.130;17.982;2023-06-22T08:58:01;101536.51;;;38.46;23.23
77013;BME280;67260;53.130;17.982;2023-06-22T09:00:27;101540.33;;;38.12;23.03
77013;BME280;67260;53.130;17.982;2023-06-22T09:02:58;101540.39;;;37.66;23.29
77013;BME280;67260;53.130;17.982;2023-06-22T09:05:24;101542.15;;;37.39;23.18
77013;BME280;67260;53.130;17.982;2023-06-22T09:07:56;101538.52;;;37.06;23.28
77013;BME280;67260;53.130;17.982;2023-06-22T09:10:40;101537.02;;;36.98;23.77
77013;BME280;67260;53.130;17.982;2023-06-22T09:13:12;101539.08;;;36.98;23.78
77013;BME280;67260;53.130;17.982;2023-06-22T09:15:41;101531.70;;;37.09;23.51
77013;BME280;67260;53.130;17.982;2023-06-22T09:18:13;101531.89;;;36.78;23.55
77013;BME280;67260;53.130;17.982;2023-06-22T09:20:41;101523.59;;;36.45;23.59
77013;BME280;67260;53.130;17.982;2023-06-22T09:23:07;101519.77;;;36.15;23.56
77013;BME280;67260;53.130;17.982;2023-06-22T09:25:37;101515.19;;;35.75;23.86
77013;BME280;67260;53.130;17.982;2023-06-22T09:28:03;101510.38;;;35.46;24.18
77013;BME280;67260;53.130;17.982;2023-06-22T09:30:30;101513.63;;;35.25;24.48
77013;BME280;67260;53.130;17.982;2023-06-22T09:32:56;101509.04;;;35.22;24.67
77013;BME280;67260;53.130;17.982;2023-06-22T09:35:26;101504.25;;;35.14;24.35
77013;BME280;67260;53.130;17.982;2023-06-22T09:38:18;101507.36;;;35.04;24.60
77013;BME280;67260;53.130;17.982;2023-06-22T09:40:49;101505.09;;;34.81;24.41
77013;BME280;67260;53.130;17.982;2023-06-22T09:43:17;101508.84;;;34.58;25.04
77013;BME280;67260;53.130;17.982;2023-06-22T09:45:43;101512.30;;;34.47;25.16
77013;BME280;67260;53.130;17.982;2023-06-22T09:48:19;101500.79;;;34.28;26.20
77013;BME280;67260;53.130;17.982;2023-06-22T09:50:45;101508.38;;;34.51;26.20
77013;BME280;67260;53.130;17.982;2023-06-22T09:53:11;101501.48;;;34.57;25.79
77013;BME280;67260;53.130;17.982;2023-06-22T09:55:42;101505.43;;;34.58;25.73
77013;BME280;67260;53.130;17.982;2023-06-22T09:58:08;101502.58;;;34.58;25.46
77013;BME280;67260;53.130;17.982;2023-06-22T10:00:35;101504.91;;;34.43;25.41
77013;BME280;67260;53.130;17.982;2023-06-22T10:03:01;101506.44;;;34.25;25.06
77013;BME280;67260;53.130;17.982;2023-06-22T10:05:28;101508.28;;;33.93;25.59
77013;BME280;67260;53.130;17.982;2023-06-22T10:07:58;101502.70;;;33.86;26.25
77013;BME280;67260;53.130;17.982;2023-06-22T10:10:26;101502.34;;;33.87;25.95
77013;BME280;67260;53.130;17.982;2023-06-22T10:13:15;101498.56;;;33.82;25.69
77013;BME280;67260;53.130;17.982;2023-06-22T10:15:42;101501.73;;;33.78;26.55
77013;BME280;67260;53.130;17.982;2023-06-22T10:18:08;101498.55;;;33.82;27.06
77013;BME280;67260;53.130;17.982;2023-06-22T10:20:35;101502.31;;;33.77;26.41
77013;BME280;67260;53.130;17.982;2023-06-22T10:23:02;101502.56;;;33.73;26.60
77013;BME280;67260;53.130;17.982;2023-06-22T10:25:28;101497.09;;;33.60;26.65
77013;BME280;67260;53.130;17.982;2023-06-22T10:27:54;101496.59;;;33.59;26.89
77013;BME280;67260;53.130;17.982;2023-06-22T10:30:20;101486.14;;;33.50;26.63
77013;BME280;67260;53.130;17.982;2023-06-22T10:32:47;101488.22;;;33.43;27.46
77013;BME280;67260;53.130;17.982;2023-06-22T10:35:18;101490.23;;;33.43;27.00
77013;BME280;67260;53.130;17.982;2023-06-22T10:38:18;101489.77;;;33.52;28.11
77013;BME280;67260;53.130;17.982;2023-06-22T10:40:53;101493.71;;;33.81;27.55
77013;BME280;67260;53.130;17.982;2023-06-22T10:43:37;101488.57;;;33.95;27.42
77013;BME280;67260;53.130;17.982;2023-06-22T10:57:29;101470.55;;;34.49;26.46
77013;BME280;67260;53.130;17.982;2023-06-22T10:59:55;101474.27;;;34.38;26.26
77013;BME280;67260;53.130;17.982;2023-06-22T11:02:23;101472.89;;;34.34;26.51
77013;BME280;67260;53.130;17.982;2023-06-22T11:04:56;101476.92;;;34.26;26.32
77013;BME280;67260;53.130;17.982;2023-06-22T11:07:33;101471.11;;;33.91;26.24
77013;BME280;67260;53.130;17.982;2023-06-22T11:10:03;101470.77;;;33.76;26.72
77013;BME280;67260;53.130;17.982;2023-06-22T11:12:29;101473.69;;;33.69;27.03
77013;BME280;67260;53.130;17.982;2023-06-22T11:14:56;101476.77;;;33.69;26.87
77013;BME280;67260;53.130;17.982;2023-06-22T11:17:23;101478.45;;;33.72;26.34
77013;BME280;67260;53.130;17.982;2023-06-22T11:19:50;101478.28;;;33.67;26.10
77013;BME280;67260;53.130;17.982;2023-06-22T11:22:16;101477.89;;;33.84;27.36
77013;BME280;67260;53.130;17.982;2023-06-22T11:24:42;101478.14;;;34.09;27.52
77013;BME280;67260;53.130;17.982;2023-06-22T11:27:08;101473.35;;;34.23;27.41
77013;BME280;67260;53.130;17.982;2023-06-22T11:29:34;101469.05;;;34.16;26.81
77013;BME280;67260;53.130;17.982;2023-06-22T11:32:01;101467.89;;;33.77;26.94
77013;BME280;67260;53.130;17.982;2023-06-22T11:34:27;101469.81;;;33.65;27.45
77013;BME280;67260;53.130;17.982;2023-06-22T11:36:54;101470.73;;;33.70;27.36
77013;BME280;67260;53.130;17.982;2023-06-22T11:39:20;101469.04;;;33.93;26.84
77013;BME280;67260;53.130;17.982;2023-06-22T11:41:46;101471.46;;;34.15;26.94
77013;BME280;67260;53.130;17.982;2023-06-22T11:44:12;101471.63;;;34.37;26.73
77013;BME280;67260;53.130;17.982;2023-06-22T11:46:39;101469.32;;;34.44;25.78
77013;BME280;67260;53.130;17.982;2023-06-22T11:49:05;101466.31;;;34.30;25.57
77013;BME280;67260;53.130;17.982;2023-06-22T11:51:31;101465.30;;;34.17;26.18
77013;BME280;67260;53.130;17.982;2023-06-22T11:53:57;101465.31;;;33.89;26.42
77013;BME280;67260;53.130;17.982;2023-06-22T11:56:24;101463.58;;;33.46;27.10
77013;BME280;67260;53.130;17.982;2023-06-22T11:58:50;101463.40;;;33.53;26.60
77013;BME280;67260;53.130;17.982;2023-06-22T12:01:16;101458.54;;;33.29;25.79
77013;BME280;67260;53.130;17.982;2023-06-22T12:03:43;101450.20;;;32.97;26.87
77013;BME280;67260;53.130;17.982;2023-06-22T12:07:03;101456.25;;;33.03;27.03
77013;BME280;67260;53.130;17.982;2023-06-22T12:09:29;101443.08;;;33.16;27.14
77013;BME280;67260;53.130;17.982;2023-06-22T12:11:57;101441.49;;;33.42;27.22
77013;BME280;67260;53.130;17.982;2023-06-22T12:14:24;101438.21;;;33.53;26.13
77013;BME280;67260;53.130;17.982;2023-06-22T12:16:50;101429.89;;;33.44;26.02
77013;BME280;67260;53.130;17.982;2023-06-22T12:19:16;101429.79;;;33.35;26.48
77013;BME280;67260;53.130;17.982;2023-06-22T12:21:42;101423.77;;;33.34;26.93
77013;BME280;67260;53.130;17.982;2023-06-22T12:24:11;101430.04;;;33.53;27.19
77013;BME280;67260;53.130;17.982;2023-06-22T12:26:38;101430.17;;;33.58;26.39
77013;BME280;67260;53.130;17.982;2023-06-22T12:29:04;101431.80;;;33.39;26.21
77013;BME280;67260;53.130;17.982;2023-06-22T12:31:30;101426.45;;;33.42;26.90
77013;BME280;67260;53.130;17.982;2023-06-22T12:33:56;101421.49;;;33.42;26.61
77013;BME280;67260;53.130;17.982;2023-06-22T12:36:22;101428.98;;;33.35;27.14
77013;BME280;67260;53.130;17.982;2023-06-22T12:38:48;101426.23;;;33.31;27.23
77013;BME280;67260;53.130;17.982;2023-06-22T12:41:14;101417.55;;;33.27;26.59
77013;BME280;67260;53.130;17.982;2023-06-22T12:43:40;101417.60;;;32.96;26.62
77013;BME280;67260;53.130;17.982;2023-06-22T12:46:06;101414.40;;;32.72;27.33
77013;BME280;67260;53.130;17.982;2023-06-22T12:48:32;101410.04;;;32.67;27.83
77013;BME280;67260;53.130;17.982;2023-06-22T12:50:58;101407.75;;;32.60;27.41
77013;BME280;67260;53.130;17.982;2023-06-22T12:53:24;101412.45;;;32.48;27.17
77013;BME280;67260;53.130;17.982;2023-06-22T12:55:52;101405.27;;;32.31;26.66
77013;BME280;67260;53.130;17.982;2023-06-22T12:58:18;101393.48;;;31.97;26.77
77013;BME280;67260;53.130;17.982;2023-06-22T13:00:45;101400.17;;;31.52;27.35
77013;BME280;67260;53.130;17.982;2023-06-22T13:03:11;101396.42;;;31.19;28.28
77013;BME280;67260;53.130;17.982;2023-06-22T13:05:37;101396.11;;;30.99;28.97
77013;BME280;67260;53.130;17.982;2023-06-22T13:08:04;101393.40;;;30.96;29.52
77013;BME280;67260;53.130;17.982;2023-06-22T13:10:30;101394.86;;;30.93;29.33
77013;BME280;67260;53.130;17.982;2023-06-22T13:12:56;101397.39;;;30.88;29.38
77013;BME280;67260;53.130;17.982;2023-06-22T13:15:28;101393.50;;;30.79;29.33
77013;BME280;67260;53.130;17.982;2023-06-22T13:17:55;101386.60;;;30.64;29.54
77013;BME280;67260;53.130;17.982;2023-06-22T13:20:21;101382.70;;;30.43;29.79
77013;BME280;67260;53.130;17.982;2023-06-22T13:25:45;101384.61;;;30.32;30.22
77013;BME280;67260;53.130;17.982;2023-06-22T13:28:12;101382.09;;;30.32;30.17
77013;BME280;67260;53.130;17.982;2023-06-22T13:30:41;101381.52;;;30.27;30.00
77013;BME280;67260;53.130;17.982;2023-06-22T13:33:18;101375.48;;;30.13;30.09
77013;BME280;67260;53.130;17.982;2023-06-22T13:35:54;101374.95;;;30.00;30.21
77013;BME280;67260;53.130;17.982;2023-06-22T13:38:21;101371.17;;;30.00;30.47
77013;BME280;67260;53.130;17.982;2023-06-22T13:40:49;101370.52;;;30.02;30.44
77013;BME280;67260;53.130;17.982;2023-06-22T13:43:17;101372.02;;;30.05;30.53
77013;BME280;67260;53.130;17.982;2023-06-22T13:45:43;101367.27;;;30.04;30.72
77013;BME280;67260;53.130;17.982;2023-06-22T13:48:09;101369.49;;;29.97;30.43
77013;BME280;67260;53.130;17.982;2023-06-22T13:50:35;101375.14;;;29.97;30.81
77013;BME280;67260;53.130;17.982;2023-06-22T13:53:01;101375.38;;;29.92;30.94